Time;durP1;ratioP1;P1;durP2;ratioP2;P2;SDS_P1;SDS_P2;PMS_P1;PMS_P2;Temp;Humidity;BMP_temperature;BMP_pressure;BME280_temperature;BME280_humidity;BME280_pressure;Samples;Min_cycle;Max_cycle;Signal;HPM_P1;HPM_P2
2023/06/22 00:01:09;;;;;;;15.37;8.50;;;22.00;1.00;;;;;;5062206;28;20430;-72
2023/06/22 00:03:35;;;;;;;10.37;7.70;;;22.00;1.00;;;;;;5062938;28;20181;-73
2023/06/22 00:06:01;;;;;;;15.20;7.90;;;22.00;1.00;;;;;;5054877;28;20188;-72
2023/06/22 00:08:26;;;;;;;9.70;7.67;;;22.10;1.00;;;;;;5069818;28;20180;-72
2023/06/22 00:10:54;;;;;;;10.00;7.77;;;22.10;1.00;;;;;;5056435;28;20579;-79
2023/06/22 00:13:20;;;;;;;12.13;8.77;;;22.10;1.00;;;;;;5054496;28;20205;-80
2023/06/22 00:15:54;;;;;;;12.53;8.33;;;22.00;1.00;;;;;;5075840;28;20939;-79
2023/06/22 00:18:46;;;;;;;12.30;8.27;;;22.00;1.00;;;;;;5073294;28;20627;-79
2023/06/22 00:21:42;;;;;;;14.60;7.50;;;22.10;1.00;;;;;;5055842;28;20914;-79
2023/06/22 00:24:30;;;;;;;11.93;8.30;;;22.10;1.00;;;;;;5057641;28;20915;-79
2023/06/22 00:26:55;;;;;;;15.27;8.10;;;22.10;1.00;;;;;;5065689;28;20517;-72
2023/06/22 00:29:21;;;;;;;13.93;8.50;;;22.20;1.00;;;;;;5055612;28;20522;-72
2023/06/22 00:31:47;;;;;;;12.80;8.07;;;22.10;1.00;;;;;;5074296;28;20204;-72
2023/06/22 00:34:12;;;;;;;20.03;8.30;;;22.10;1.00;;;;;;5062598;28;20191;-72
2023/06/22 00:36:40;;;;;;;12.07;8.27;;;22.10;1.00;;;;;;5055620;28;20562;-72
2023/06/22 00:39:07;;;;;;;16.23;8.57;;;22.20;1.00;;;;;;5055116;28;20181;-72
2023/06/22 00:41:33;;;;;;;10.33;7.87;;;22.10;1.00;;;;;;5064236;28;20428;-72
2023/06/22 00:43:59;;;;;;;12.57;7.80;;;22.10;1.00;;;;;;5054669;28;20460;-72
2023/06/22 00:46:25;;;;;;;11.20;8.00;;;22.20;1.00;;;;;;5055454;28;20454;-72
2023/06/22 00:48:57;;;;;;;16.53;7.70;;;22.20;1.00;;;;;;5063946;28;20634;-72
2023/06/22 00:51:24;;;;;;;11.53;7.40;;;22.20;1.00;;;;;;5065978;28;20267;-72
2023/06/22 00:53:54;;;;;;;18.50;8.10;;;22.20;1.00;;;;;;5055155;28;20459;-72
2023/06/22 00:56:24;;;;;;;9.73;6.73;;;22.30;1.00;;;;;;5064220;28;20442;-72
2023/06/22 00:58:52;;;;;;;9.43;7.07;;;22.40;1.00;;;;;;5054897;28;20499;-72
2023/06/22 01:01:22;;;;;;;11.10;7.23;;;22.40;1.00;;;;;;5054999;28;20800;-72
2023/06/22 01:03:50;;;;;;;8.53;7.07;;;22.40;1.00;;;;;;5057226;28;20897;-72
2023/06/22 01:06:26;;;;;;;11.63;7.20;;;22.40;1.00;;;;;;5054388;28;20486;-72
2023/06/22 01:09:02;;;;;;;10.40;7.37;;;22.40;1.00;;;;;;5054424;28;20484;-72
2023/06/22 01:11:48;;;;;;;13.10;8.27;;;22.50;1.00;;;;;;5052764;28;20465;-79
2023/06/22 01:14:55;;;;;;;15.37;7.93;;;22.40;1.00;;;;;;5051530;28;20432;-79
2023/06/22 01:17:26;;;;;;;11.10;8.30;;;22.10;1.00;;;;;;5068839;28;20413;-79
2023/06/22 01:20:12;;;;;;;16.40;7.90;;;22.10;1.00;;;;;;5059583;28;20422;-79
2023/06/22 01:23:18;;;;;;;9.77;7.93;;;22.20;1.00;;;;;;5067665;28;20504;-79
2023/06/22 01:26:02;;;;;;;11.40;8.70;;;22.10;1.00;;;;;;5027676;28;20793;-73
2023/06/22 01:28:52;;;;;;;16.63;9.03;;;22.10;1.00;;;;;;5012337;28;20456;-72
2023/06/22 01:31:22;;;;;;;13.60;8.40;;;22.00;1.00;;;;;;4997861;28;20427;-72
2023/06/22 01:34:01;;;;;;;11.90;8.73;;;22.00;1.00;;;;;;5006629;28;20516;-73
2023/06/22 01:36:27;;;;;;;15.10;9.40;;;21.80;1.00;;;;;;5009478;28;20423;-72
2023/06/22 01:38:54;;;;;;;15.07;9.13;;;21.70;1.00;;;;;;4996201;28;20953;-72
2023/06/22 01:41:21;;;;;;;14.70;9.10;;;21.60;1.00;;;;;;5010818;28;20452;-72
2023/06/22 01:43:48;;;;;;;12.80;10.37;;;21.50;1.00;;;;;;4995322;28;20919;-72
2023/06/22 01:46:15;;;;;;;12.90;9.50;;;21.50;1.00;;;;;;5012227;28;20447;-72
2023/06/22 01:48:41;;;;;;;15.67;9.90;;;21.40;1.00;;;;;;5017178;28;20550;-72
2023/06/22 01:51:07;;;;;;;14.90;10.63;;;21.30;1.00;;;;;;4989346;28;20443;-72
2023/06/22 01:53:33;;;;;;;17.40;10.37;;;21.30;1.00;;;;;;5004810;28;20470;-72
2023/06/22 01:56:06;;;;;;;14.93;11.10;;;21.20;1.00;;;;;;5013862;28;20445;-77
2023/06/22 01:59:00;;;;;;;13.40;10.43;;;21.20;1.00;;;;;;5018822;28;20262;-78
2023/06/22 02:01:54;;;;;;;18.67;11.70;;;21.10;1.00;;;;;;5021768;28;20552;-78
2023/06/22 02:04:46;;;;;;;15.53;11.23;;;21.20;1.00;;;;;;5046600;28;20477;-78
2023/06/22 02:07:46;;;;;;;15.43;12.33;;;21.10;1.00;;;;;;5064467;28;20408;-79
2023/06/22 02:10:26;;;;;;;15.17;11.50;;;21.20;1.00;;;;;;5068908;28;20787;-79
2023/06/22 02:12:54;;;;;;;14.83;11.20;;;21.20;1.00;;;;;;5053810;28;21088;-72
2023/06/22 02:15:21;;;;;;;14.63;11.50;;;21.20;1.00;;;;;;5053124;28;20766;-72
2023/06/22 02:17:48;;;;;;;17.83;12.57;;;21.20;1.00;;;;;;5053834;28;20419;-72
2023/06/22 02:20:15;;;;;;;15.80;12.17;;;21.20;1.00;;;;;;5056549;28;20507;-72
2023/06/22 02:22:42;;;;;;;15.50;12.00;;;21.20;1.00;;;;;;5070277;28;20424;-72
2023/06/22 02:25:08;;;;;;;20.37;12.27;;;21.20;1.00;;;;;;5053165;28;20484;-72
2023/06/22 02:27:40;;;;;;;27.93;12.13;;;21.20;1.00;;;;;;5067053;28;20929;-72
2023/06/22 02:30:08;;;;;;;16.90;11.73;;;21.20;1.00;;;;;;5040860;28;20769;-72
2023/06/22 02:32:34;;;;;;;16.63;12.50;;;21.20;1.00;;;;;;5054087;28;20452;-72
2023/06/22 02:34:59;;;;;;;15.63;12.47;;;21.20;1.00;;;;;;5065670;28;20486;-72
2023/06/22 02:37:29;;;;;;;14.33;11.60;;;21.20;1.00;;;;;;5066825;28;20423;-72
2023/06/22 02:39:54;;;;;;;15.77;11.77;;;21.20;1.00;;;;;;5053108;28;20656;-72
2023/06/22 02:42:21;;;;;;;14.83;12.17;;;21.20;1.00;;;;;;5053850;28;20524;-72
2023/06/22 02:44:47;;;;;;;14.47;12.17;;;21.20;1.00;;;;;;5052524;28;20293;-72
2023/06/22 02:47:18;;;;;;;17.27;12.10;;;21.20;1.00;;;;;;5043409;28;20436;-72
2023/06/22 02:49:45;;;;;;;18.50;12.70;;;21.20;1.00;;;;;;5073362;28;20740;-72
2023/06/22 02:52:11;;;;;;;19.93;12.10;;;21.20;1.00;;;;;;5055508;28;20829;-81
2023/06/22 02:54:48;;;;;;;21.70;12.00;;;21.20;1.00;;;;;;5061612;28;20428;-82
2023/06/22 02:57:53;;;;;;;13.90;11.53;;;21.20;1.00;;;;;;5042173;28;20210;-80
2023/06/22 03:00:30;;;;;;;16.67;12.93;;;21.10;1.00;;;;;;5061933;28;20407;-80
2023/06/22 03:02:56;;;;;;;15.40;12.37;;;21.10;1.00;;;;;;5063091;28;20500;-80
2023/06/22 03:05:24;;;;;;;16.40;11.73;;;21.00;1.00;;;;;;5069394;28;20910;-80
2023/06/22 03:08:00;;;;;;;15.00;11.23;;;21.00;1.00;;;;;;5061961;28;20528;-80
2023/06/22 03:10:26;;;;;;;20.27;12.40;;;21.00;1.00;;;;;;5058452;28;20418;-80
2023/06/22 03:13:06;;;;;;;19.63;12.33;;;20.90;1.00;;;;;;5061840;28;20465;-81
2023/06/22 03:16:17;;;;;;;14.50;11.70;;;20.90;1.00;;;;;;5037988;28;20526;-81
2023/06/22 03:19:00;;;;;;;21.70;12.13;;;20.90;1.00;;;;;;5072499;28;20874;-80
2023/06/22 03:21:38;;;;;;;14.77;11.90;;;20.90;1.00;;;;;;5057630;28;20411;-80
2023/06/22 03:24:05;;;;;;;18.33;12.10;;;20.90;1.00;;;;;;5056840;28;20402;-80
2023/06/22 03:26:42;;;;;;;16.10;12.67;;;20.80;1.00;;;;;;5046238;28;20537;-81
2023/06/22 03:29:25;;;;;;;16.80;12.30;;;20.80;1.00;;;;;;5048239;28;20958;-81
2023/06/22 03:32:12;;;;;;;16.70;12.03;;;20.80;1.00;;;;;;5048803;28;20979;-81
2023/06/22 03:35:13;;;;;;;16.53;12.50;;;20.80;1.00;;;;;;5042788;28;20430;-81
2023/06/22 03:38:00;;;;;;;17.50;12.37;;;20.80;1.00;;;;;;5065283;28;20415;-80
2023/06/22 03:40:25;;;;;;;14.90;12.07;;;20.80;1.00;;;;;;5062941;28;20404;-81
2023/06/22 03:43:06;;;;;;;16.30;11.70;;;20.80;1.00;;;;;;5069246;28;20496;-81
2023/06/22 03:45:37;;;;;;;18.27;12.37;;;20.80;1.00;;;;;;5070871;28;20272;-81
2023/06/22 03:48:06;;;;;;;15.07;11.80;;;20.80;1.00;;;;;;5053970;28;20469;-81
2023/06/22 03:50:36;;;;;;;18.10;11.90;;;20.80;1.00;;;;;;5061035;28;20411;-81
2023/06/22 03:53:53;;;;;;;29.47;13.17;;;20.80;1.00;;;;;;5061319;28;20448;-81
2023/06/22 03:56:20;;;;;;;15.83;12.40;;;20.90;1.00;;;;;;5042651;28;20403;-81
2023/06/22 03:59:06;;;;;;;18.33;13.30;;;20.90;1.00;;;;;;5055510;28;20428;-81
2023/06/22 04:01:31;;;;;;;19.50;12.90;;;20.90;1.00;;;;;;5081905;28;20431;-82
2023/06/22 04:04:07;;;;;;;18.93;13.30;;;21.00;1.00;;;;;;5061578;28;20438;-82
2023/06/22 04:06:36;;;;;;;15.87;11.37;;;21.00;1.00;;;;;;5059350;28;20174;-81
2023/06/22 04:09:12;;;;;;;16.57;11.90;;;21.10;1.00;;;;;;5052096;28;20502;-82
2023/06/22 04:12:30;;;;;;;15.03;12.30;;;21.10;1.00;;;;;;5061108;28;20488;-82
2023/06/22 04:14:55;;;;;;;17.00;11.80;;;21.20;1.00;;;;;;5066725;28;20428;-82
2023/06/22 04:20:54;;;;;;;17.20;10.90;;;21.20;1.00;;;;;;5052207;28;20185;-81
2023/06/22 04:23:43;;;;;;;19.23;11.83;;;21.30;1.00;;;;;;5061005;28;20413;-81
2023/06/22 04:26:20;;;;;;;19.33;12.17;;;21.40;1.00;;;;;;5071040;28;20418;-83
2023/06/22 04:28:51;;;;;;;14.53;11.60;;;21.40;1.00;;;;;;5059199;28;20429;-81
2023/06/22 04:31:51;;;;;;;19.43;11.83;;;21.40;1.00;;;;;;5058912;28;20416;-82
2023/06/22 04:35:11;;;;;;;15.03;11.33;;;21.50;1.00;;;;;;5069264;28;20403;-82
2023/06/22 04:41:01;;;;;;;17.83;11.57;;;21.50;1.00;;;;;;5067140;28;20459;-81
2023/06/22 04:43:54;;;;;;;16.70;11.30;;;21.50;1.00;;;;;;5064901;28;20454;-81
2023/06/22 04:46:20;;;;;;;16.60;11.47;;;21.50;1.00;;;;;;5051360;28;20430;-81
2023/06/22 04:52:42;;;;;;;13.20;11.20;;;21.60;1.00;;;;;;5068189;28;20574;-81
2023/06/22 04:55:19;;;;;;;18.20;12.03;;;21.70;1.00;;;;;;5059758;28;20416;-81
2023/06/22 04:58:19;;;;;;;13.80;10.90;;;21.80;1.00;;;;;;5054231;28;20413;-81
2023/06/22 05:01:32;;;;;;;16.43;10.80;;;21.80;1.00;;;;;;5044475;28;20875;-81
2023/06/22 05:04:07;;;;;;;15.13;11.17;;;21.90;1.00;;;;;;5068734;28;20798;-82
2023/06/22 05:06:36;;;;;;;15.10;11.10;;;22.00;1.00;;;;;;5068242;28;20446;-81
2023/06/22 05:09:48;;;;;;;14.10;10.90;;;22.10;1.00;;;;;;5062273;28;20421;-82
2023/06/22 05:12:18;;;;;;;14.20;11.40;;;22.20;1.00;;;;;;5042598;28;20433;-82
2023/06/22 05:18:06;;;;;;;12.50;10.63;;;22.40;1.00;;;;;;5053755;28;20493;-82
2023/06/22 05:20:42;;;;;;;14.70;10.80;;;22.50;1.00;;;;;;5065211;28;20421;-82
2023/06/22 05:23:12;;;;;;;14.10;10.73;;;22.60;1.00;;;;;;5058279;28;20765;-83
2023/06/22 05:26:09;;;;;;;15.50;10.40;;;22.80;1.00;;;;;;5074165;28;20432;-83
2023/06/22 05:28:54;;;;;;;12.60;10.63;;;22.90;1.00;;;;;;5066302;28;20423;-82
2023/06/22 05:31:36;;;;;;;13.70;10.70;;;22.90;1.00;;;;;;5057626;28;20503;-82
2023/06/22 05:38:11;;;;;;;13.17;10.73;;;23.00;1.00;;;;;;5055822;28;20739;-83
2023/06/22 05:41:12;;;;;;;19.37;10.70;;;23.00;1.00;;;;;;5062791;28;20487;-83
2023/06/22 05:44:00;;;;;;;15.43;10.40;;;23.00;1.00;;;;;;5074129;28;20426;-81
2023/06/22 05:46:36;;;;;;;14.60;10.40;;;23.10;1.00;;;;;;5050847;28;20441;-81
2023/06/22 05:52:24;;;;;;;17.90;12.70;;;23.00;1.00;;;;;;5033929;28;21048;-80
2023/06/22 05:55:06;;;;;;;13.10;10.77;;;23.10;1.00;;;;;;5054531;28;20414;-80
2023/06/22 05:57:42;;;;;;;15.43;10.80;;;23.10;1.00;;;;;;5060417;28;20168;-81
2023/06/22 06:00:18;;;;;;;14.23;10.00;;;23.20;1.00;;;;;;5050375;28;20521;-81
2023/06/22 06:02:49;;;;;;;14.83;10.93;;;23.20;1.00;;;;;;5063307;28;20432;-82
2023/06/22 06:05:15;;;;;;;14.20;10.50;;;23.40;1.00;;;;;;5068012;28;20420;-80
2023/06/22 06:08:06;;;;;;;16.83;10.20;;;23.40;1.00;;;;;;5061306;28;20420;-81
2023/06/22 06:10:48;;;;;;;15.73;9.83;;;23.40;1.00;;;;;;5069803;28;20926;-81
2023/06/22 06:13:18;;;;;;;19.23;9.53;;;23.50;1.00;;;;;;5054603;28;20459;-81
2023/06/22 06:15:48;;;;;;;16.77;10.00;;;23.70;1.00;;;;;;5064059;28;20427;-81
2023/06/22 06:18:24;;;;;;;18.70;9.60;;;23.70;1.00;;;;;;5077733;28;21198;-81
2023/06/22 06:21:00;;;;;;;16.90;10.37;;;23.80;1.00;;;;;;5050909;28;20488;-81
2023/06/22 06:23:54;;;;;;;18.13;10.30;;;24.00;1.00;;;;;;5060757;28;20438;-82
2023/06/22 06:26:36;;;;;;;22.13;9.40;;;24.00;1.00;;;;;;5059005;28;20534;-82
2023/06/22 06:29:06;;;;;;;15.13;9.70;;;24.10;1.00;;;;;;5044758;28;20457;-81
2023/06/22 06:31:33;;;;;;;22.00;9.50;;;24.20;1.00;;;;;;5050263;28;20476;-81
2023/06/22 06:34:30;;;;;;;12.43;9.47;;;24.30;1.00;;;;;;5059251;28;20428;-82
2023/06/22 06:36:56;;;;;;;13.63;9.47;;;24.40;1.00;;;;;;5054111;28;20425;-82
2023/06/22 06:39:42;;;;;;;14.23;9.43;;;24.40;1.00;;;;;;5056547;28;20465;-82
2023/06/22 06:42:30;;;;;;;13.53;10.10;;;24.50;1.00;;;;;;5070479;28;20194;-82
2023/06/22 06:45:00;;;;;;;12.40;9.50;;;24.70;1.00;;;;;;5053046;28;20529;-82
2023/06/22 06:47:30;;;;;;;13.40;9.70;;;24.80;1.00;;;;;;5051476;28;20498;-82
2023/06/22 06:50:12;;;;;;;12.83;8.73;;;24.90;1.00;;;;;;5042050;28;20435;-82
2023/06/22 06:53:00;;;;;;;17.47;9.10;;;25.20;1.00;;;;;;5061149;28;20507;-82
2023/06/22 06:55:26;;;;;;;14.40;8.70;;;25.30;1.00;;;;;;5065777;28;20415;-82
2023/06/22 06:58:13;;;;;;;13.90;9.10;;;25.40;1.00;;;;;;5059130;28;20418;-82
2023/06/22 07:00:39;;;;;;;15.23;8.87;;;25.60;1.00;;;;;;5039784;28;20420;-82
2023/06/22 07:03:24;;;;;;;14.40;10.03;;;25.80;1.00;;;;;;5065563;28;20431;-83
2023/06/22 07:06:13;;;;;;;15.63;9.03;;;25.90;1.00;;;;;;5050683;28;20401;-82
2023/06/22 07:09:12;;;;;;;14.43;9.33;;;26.00;1.00;;;;;;5061944;28;20424;-83
2023/06/22 07:11:37;;;;;;;13.23;9.10;;;26.10;1.00;;;;;;5070061;28;20852;-83
2023/06/22 07:14:42;;;;;;;11.73;9.43;;;26.20;1.00;;;;;;5062534;28;20420;-83
2023/06/22 07:17:12;;;;;;;14.73;9.10;;;26.10;1.00;;;;;;5047179;28;20183;-82
2023/06/22 07:19:38;;;;;;;13.67;9.27;;;26.20;1.00;;;;;;5053527;28;20419;-82
2023/06/22 07:22:12;;;;;;;15.73;8.67;;;26.20;1.00;;;;;;5053580;28;21047;-82
2023/06/22 07:24:42;;;;;;;12.73;9.00;;;26.20;1.00;;;;;;5048100;28;20447;-82
2023/06/22 07:27:12;;;;;;;11.83;8.30;;;26.20;1.00;;;;;;5055965;28;20955;-83
2023/06/22 07:29:48;;;;;;;15.40;9.03;;;26.30;1.00;;;;;;5065747;28;20424;-82
2023/06/22 07:32:30;;;;;;;11.40;8.63;;;26.20;1.00;;;;;;5074835;28;20799;-82
2023/06/22 07:35:06;;;;;;;19.33;8.63;;;26.30;1.00;;;;;;5075026;28;20903;-81
2023/06/22 07:37:42;;;;;;;10.20;7.97;;;26.40;1.00;;;;;;5055264;28;20419;-81
2023/06/22 07:40:12;;;;;;;12.80;9.43;;;26.50;1.00;;;;;;5062865;28;20460;-81
2023/06/22 07:42:42;;;;;;;15.53;9.30;;;26.60;1.00;;;;;;5064883;28;20492;-82
2023/06/22 07:45:44;;;;;;;13.10;9.50;;;26.70;1.00;;;;;;5059299;28;20517;-81
2023/06/22 07:48:37;;;;;;;13.23;9.10;;;26.90;1.00;;;;;;5045563;28;20436;-80
2023/06/22 07:51:12;;;;;;;12.70;9.30;;;26.90;1.00;;;;;;5049592;28;20408;-81
2023/06/22 07:54:12;;;;;;;19.77;8.93;;;26.90;1.00;;;;;;5051219;28;20449;-82
2023/06/22 07:57:12;;;;;;;12.87;9.47;;;27.00;1.00;;;;;;5060948;28;20499;-81
2023/06/22 07:59:54;;;;;;;22.70;9.23;;;27.20;1.00;;;;;;5065145;28;20458;-83
2023/06/22 08:05:42;;;;;;;13.70;9.37;;;27.30;1.00;;;;;;5066961;28;20408;-84
2023/06/22 08:08:24;;;;;;;11.50;8.60;;;27.50;1.00;;;;;;5056826;28;20414;-83
2023/06/22 08:10:54;;;;;;;11.97;9.50;;;27.60;1.00;;;;;;5064987;28;20405;-83
2023/06/22 08:13:42;;;;;;;14.97;10.07;;;27.70;1.00;;;;;;5076616;28;20440;-83
2023/06/22 08:16:12;;;;;;;14.77;9.43;;;27.70;1.00;;;;;;5069052;28;20453;-82
2023/06/22 08:19:12;;;;;;;16.60;8.90;;;27.90;1.00;;;;;;5054732;28;20438;-81
2023/06/22 08:21:38;;;;;;;20.30;8.53;;;28.00;1.00;;;;;;5057926;28;20433;-82
2023/06/22 08:24:36;;;;;;;15.30;9.20;;;28.10;1.00;;;;;;5066956;28;20420;-82
2023/06/22 08:27:02;;;;;;;18.00;9.10;;;28.20;1.00;;;;;;5071286;28;20430;-82
2023/06/22 08:29:37;;;;;;;12.60;9.13;;;28.30;1.00;;;;;;5067755;28;20447;-81
2023/06/22 08:32:03;;;;;;;12.20;9.13;;;28.50;1.00;;;;;;5050653;28;20201;-83
2023/06/22 08:34:54;;;;;;;16.23;9.57;;;28.50;1.00;;;;;;5049547;28;20421;-84
2023/06/22 08:37:30;;;;;;;12.50;9.50;;;28.60;1.00;;;;;;5064056;28;20782;-83
2023/06/22 08:40:33;;;;;;;10.97;9.03;;;28.70;1.00;;;;;;5068143;28;20419;-83
2023/06/22 08:43:00;;;;;;;10.50;9.30;;;28.90;1.00;;;;;;5060460;28;20942;-83
2023/06/22 08:46:12;;;;;;;10.93;9.70;;;29.10;1.00;;;;;;5063732;28;20818;-83
2023/06/22 08:48:54;;;;;;;10.40;9.33;;;29.10;1.00;;;;;;5037501;28;20452;-83
2023/06/22 08:51:42;;;;;;;10.90;9.10;;;29.30;1.00;;;;;;5055579;28;20432;-83
2023/06/22 08:54:12;;;;;;;13.30;9.60;;;29.50;1.00;;;;;;5069016;28;20431;-83
2023/06/22 08:56:44;;;;;;;19.90;9.27;;;29.60;1.00;;;;;;5051313;28;20430;-83
2023/06/22 08:59:30;;;;;;;16.40;9.13;;;29.70;1.00;;;;;;5072775;28;20791;-83
2023/06/22 09:02:24;;;;;;;12.90;9.43;;;29.80;1.00;;;;;;5074466;28;20413;-83
2023/06/22 09:04:55;;;;;;;9.47;8.40;;;30.00;1.00;;;;;;5065654;28;20507;-83
2023/06/22 09:07:25;;;;;;;10.47;7.83;;;30.10;1.00;;;;;;5070948;28;20444;-83
2023/06/22 09:09:55;;;;;;;12.47;8.73;;;30.20;1.00;;;;;;5067031;28;20422;-83
2023/06/22 09:12:25;;;;;;;13.20;9.37;;;30.20;1.00;;;;;;5061751;28;20471;-83
2023/06/22 09:14:51;;;;;;;9.83;8.53;;;30.40;1.00;;;;;;5060828;28;20431;-83
2023/06/22 09:17:48;;;;;;;11.70;8.70;;;30.40;1.00;;;;;;5057843;28;20521;-83
2023/06/22 09:23:42;;;;;;;9.50;7.73;;;31.30;1.00;;;;;;5058279;28;20428;-84
2023/06/22 09:26:24;;;;;;;16.60;13.20;;;31.30;1.00;;;;;;5054155;28;20469;-83
2023/06/22 09:29:36;;;;;;;9.50;8.13;;;31.50;1.00;;;;;;5047579;28;20785;-83
2023/06/22 09:32:12;;;;;;;11.90;8.53;;;31.60;1.00;;;;;;5054513;28;20456;-83
2023/06/22 09:34:43;;;;;;;10.27;8.30;;;31.50;1.00;;;;;;5053453;28;20790;-83
2023/06/22 09:37:12;;;;;;;11.27;8.60;;;31.40;1.00;;;;;;5062107;28;20417;-85
2023/06/22 09:39:42;;;;;;;9.43;8.30;;;31.40;1.00;;;;;;5057950;28;20513;-83
2023/06/22 09:42:42;;;;;;;8.20;7.40;;;31.50;1.00;;;;;;5061557;28;20819;-84
2023/06/22 09:45:54;;;;;;;10.10;7.90;;;31.60;1.00;;;;;;5043961;28;20461;-83
2023/06/22 09:49:00;;;;;;;12.00;8.13;;;31.60;1.00;;;;;;5051501;28;20438;-82
2023/06/22 09:51:42;;;;;;;8.97;8.07;;;32.10;1.00;;;;;;5051184;28;20533;-82
2023/06/22 09:54:08;;;;;;;8.73;7.80;;;32.10;1.00;;;;;;5065840;28;20932;-80
2023/06/22 09:56:33;;;;;;;12.30;7.20;;;32.60;1.00;;;;;;5052940;28;20405;-81
2023/06/22 09:59:06;;;;;;;8.23;7.37;;;32.80;1.00;;;;;;5057498;28;20183;-82
2023/06/22 10:01:32;;;;;;;7.80;6.77;;;32.80;1.00;;;;;;5067271;28;20178;-81
2023/06/22 10:04:01;;;;;;;8.30;7.37;;;33.10;1.00;;;;;;5049624;28;20430;-81
2023/06/22 10:06:30;;;;;;;8.67;6.80;;;33.30;1.00;;;;;;5048347;28;20190;-81
2023/06/22 10:09:07;;;;;;;10.83;6.60;;;33.60;1.00;;;;;;5068172;28;20508;-81
2023/06/22 10:11:42;;;;;;;7.83;7.13;;;33.70;1.00;;;;;;5052408;28;20422;-81
2023/06/22 10:14:12;;;;;;;7.80;7.00;;;33.60;1.00;;;;;;5047228;28;20449;-82
2023/06/22 10:17:07;;;;;;;10.13;6.70;;;33.70;1.00;;;;;;5053903;28;20441;-82
2023/06/22 10:19:42;;;;;;;8.20;7.17;;;33.70;1.00;;;;;;5068524;28;20422;-81
2023/06/22 10:22:12;;;;;;;11.93;7.07;;;33.90;1.00;;;;;;5053035;28;20434;-81
2023/06/22 10:24:44;;;;;;;7.63;6.93;;;34.00;1.00;;;;;;5058290;28;20507;-81
2023/06/22 10:27:13;;;;;;;10.37;7.30;;;33.80;1.00;;;;;;5065894;28;20417;-81
2023/06/22 10:29:42;;;;;;;8.20;7.40;;;33.80;1.00;;;;;;5055496;28;20783;-81
2023/06/22 10:32:12;;;;;;;8.87;6.90;;;33.70;1.00;;;;;;5060811;28;20947;-81
2023/06/22 10:34:42;;;;;;;8.43;7.50;;;33.70;1.00;;;;;;5065574;28;20915;-81
2023/06/22 10:37:12;;;;;;;7.83;7.03;;;33.80;1.00;;;;;;5054442;28;20441;-81
2023/06/22 10:39:48;;;;;;;7.67;6.43;;;33.90;1.00;;;;;;5049459;28;20435;-82
2023/06/22 10:42:14;;;;;;;12.27;6.70;;;34.20;1.00;;;;;;5062128;28;20520;-82
2023/06/22 10:44:44;;;;;;;7.70;6.33;;;34.50;1.00;;;;;;5066348;28;20512;-82
2023/06/22 10:47:11;;;;;;;6.87;6.13;;;34.50;1.00;;;;;;5051218;28;20453;-84
2023/06/22 10:49:42;;;;;;;7.93;6.80;;;34.40;1.00;;;;;;5064335;28;20410;-85
2023/06/22 10:52:12;;;;;;;13.53;7.13;;;34.50;1.00;;;;;;5057065;28;20469;-84
2023/06/22 10:54:42;;;;;;;7.50;6.60;;;34.70;1.00;;;;;;5058616;28;20430;-85
2023/06/22 10:57:18;;;;;;;7.17;6.43;;;34.60;1.00;;;;;;5038856;28;20777;-85
2023/06/22 11:00:12;;;;;;;7.47;6.20;;;34.50;1.00;;;;;;5066405;28;20428;-84
2023/06/22 11:02:38;;;;;;;7.20;6.50;;;;;;;;;;5070258;28;20418;-82
2023/06/22 11:05:05;;;;;;;8.47;5.83;;;34.40;1.00;;;;;;5056652;28;20564;-82
2023/06/22 11:07:38;;;;;;;8.00;6.30;;;34.60;1.00;;;;;;5051682;28;20923;-82
2023/06/22 11:10:13;;;;;;;12.50;6.43;;;34.60;1.00;;;;;;5053869;28;20418;-82
2023/06/22 11:12:42;;;;;;;12.13;6.30;;;34.60;1.00;;;;;;5063673;28;20521;-82
2023/06/22 11:15:13;;;;;;;6.97;6.27;;;34.60;1.00;;;;;;5063477;28;20418;-82
2023/06/22 11:17:43;;;;;;;6.77;6.13;;;;;;;;;;5072622;28;20442;-84
2023/06/22 11:20:13;;;;;;;9.43;6.53;;;34.50;1.00;;;;;;5059204;28;20421;-84
2023/06/22 11:22:39;;;;;;;6.70;6.03;;;;;;;;;;5065943;28;20895;-85
2023/06/22 11:25:07;;;;;;;7.60;6.03;;;;;;;;;;5052582;28;20415;-85
2023/06/22 11:27:42;;;;;;;7.47;6.77;;;34.40;1.00;;;;;;5054068;28;20779;-84
2023/06/22 11:30:12;;;;;;;8.97;6.57;;;34.40;1.00;;;;;;5071860;28;20838;-84
2023/06/22 11:32:42;;;;;;;13.27;6.17;;;34.60;1.00;;;;;;5044572;28;20457;-83
2023/06/22 11:35:12;;;;;;;11.43;7.00;;;34.90;1.00;;;;;;5059449;28;20409;-82
2023/06/22 11:37:42;;;;;;;11.67;6.50;;;34.60;1.00;;;;;;5058678;28;20403;-82
2023/06/22 11:40:12;;;;;;;8.07;7.07;;;34.60;1.00;;;;;;5037248;28;20414;-82
2023/06/22 11:42:38;;;;;;;8.40;6.73;;;34.60;1.00;;;;;;5049360;28;20531;-82
2023/06/22 11:45:12;;;;;;;12.80;6.90;;;34.50;1.00;;;;;;5075501;28;20417;-83
2023/06/22 11:47:39;;;;;;;10.80;6.43;;;34.60;1.00;;;;;;5073699;28;20957;-85
2023/06/22 11:50:07;;;;;;;17.80;6.70;;;34.70;1.00;;;;;;5056965;28;20479;-85
2023/06/22 11:52:35;;;;;;;13.17;6.80;;;34.90;1.00;;;;;;5072041;28;20459;-84
2023/06/22 11:55:12;;;;;;;10.10;6.10;;;34.80;1.00;;;;;;5064328;28;20437;-84
2023/06/22 11:57:58;;;;;;;11.37;7.17;;;35.00;1.00;;;;;;5072824;28;20742;-84
2023/06/22 12:04:42;;;;;;;6.83;6.13;;;35.40;1.00;;;;;;5063027;28;20931;-84
2023/06/22 12:07:18;;;;;;;10.03;5.80;;;35.30;1.00;;;;;;5057382;28;20441;-84
2023/06/22 12:09:44;;;;;;;12.27;6.07;;;35.40;1.00;;;;;;5044413;28;20410;-86
2023/06/22 12:12:18;;;;;;;10.80;5.70;;;35.10;1.00;;;;;;5054084;28;20465;-86
2023/06/22 12:18:24;;;;;;;12.33;6.07;;;35.00;1.00;;;;;;5068228;28;20428;-86
2023/06/22 12:24:12;;;;;;;11.80;6.33;;;34.90;1.00;;;;;;5063617;28;20829;-86
2023/06/22 12:30:00;;;;;;;9.13;6.27;;;35.00;1.00;;;;;;5060199;28;20206;-83
2023/06/22 12:32:26;;;;;;;9.37;6.30;;;35.20;1.00;;;;;;5063398;28;20456;-83
2023/06/22 12:38:13;;;;;;;8.13;6.03;;;35.40;1.00;;;;;;5062410;28;20400;-85
2023/06/22 12:40:42;;;;;;;15.17;6.80;;;35.40;1.00;;;;;;5074896;28;20426;-83
2023/06/22 12:43:36;;;;;;;9.10;6.23;;;35.30;1.00;;;;;;5060223;28;20270;-84
2023/06/22 12:49:30;;;;;;;9.80;6.20;;;35.00;1.00;;;;;;5062210;28;20989;-82
2023/06/22 12:55:24;;;;;;;9.03;6.37;;;35.00;1.00;;;;;;5048284;28;20595;-84
2023/06/22 12:57:50;;;;;;;10.57;6.50;;;35.00;1.00;;;;;;5069605;28;20422;-85
2023/06/22 13:00:16;;;;;;;12.30;6.80;;;;;;;;;;5064759;28;20420;-83
2023/06/22 13:03:06;;;;;;;9.43;6.90;;;35.10;1.00;;;;;;5060687;28;20184;-86
2023/06/22 13:05:42;;;;;;;14.13;7.03;;;35.30;1.00;;;;;;5064857;28;20426;-88
2023/06/22 13:08:24;;;;;;;10.03;6.10;;;35.60;1.00;;;;;;5054406;28;20928;-84
2023/06/22 13:11:00;;;;;;;11.00;6.73;;;35.70;1.00;;;;;;5062841;28;20446;-86
2023/06/22 13:13:27;;;;;;;19.67;7.37;;;35.80;1.00;;;;;;5052218;28;20998;-85
2023/06/22 13:16:00;;;;;;;11.93;6.60;;;35.90;1.00;;;;;;5048409;28;20941;-85
2023/06/22 13:18:48;;;;;;;11.47;6.63;;;35.80;1.00;;;;;;5064850;28;20405;-85
2023/06/22 13:21:24;;;;;;;12.10;6.40;;;35.80;1.00;;;;;;5056308;28;20418;-83
2023/06/22 13:24:01;;;;;;;20.83;6.63;;;35.80;1.00;;;;;;5071302;28;20417;-86
2023/06/22 13:29:49;;;;;;;9.70;6.63;;;;;;;;;;5056371;28;20413;-86
2023/06/22 13:32:24;;;;;;;10.87;6.10;;;36.40;1.00;;;;;;5058776;28;20536;-85
2023/06/22 13:38:12;;;;;;;15.77;6.70;;;36.50;1.00;;;;;;5044091;28;20447;-85
2023/06/22 13:40:42;;;;;;;9.30;6.20;;;36.40;1.00;;;;;;5038854;28;20461;-85
2023/06/22 13:43:12;;;;;;;11.77;6.10;;;36.40;1.00;;;;;;5049662;28;20190;-85
2023/06/22 13:46:18;;;;;;;13.03;6.07;;;36.30;1.00;;;;;;5068375;28;20425;-85
2023/06/22 13:48:54;;;;;;;9.53;6.40;;;36.40;1.00;;;;;;5034914;28;20448;-84
2023/06/22 13:52:00;;;;;;;12.70;6.83;;;36.40;1.00;;;;;;5051350;28;20467;-85
2023/06/22 13:54:42;;;;;;;8.50;5.77;;;36.60;1.00;;;;;;5054116;28;20433;-86
2023/06/22 13:57:12;;;;;;;17.10;7.13;;;36.70;1.00;;;;;;5066164;28;20432;-86
2023/06/22 14:00:24;;;;;;;9.67;6.50;;;36.90;1.00;;;;;;5073594;28;20939;-85
2023/06/22 14:02:50;;;;;;;14.87;7.07;;;37.20;1.00;;;;;;5065398;28;20514;-83
2023/06/22 14:05:18;;;;;;;14.20;6.03;;;37.30;1.00;;;;;;5066513;28;20868;-85
2023/06/22 14:07:45;;;;;;;10.37;5.97;;;37.30;1.00;;;;;;5072844;28;20420;-84
2023/06/22 14:10:11;;;;;;;15.07;5.93;;;37.40;1.00;;;;;;5065702;28;20434;-84
2023/06/22 14:12:48;;;;;;;9.87;5.90;;;37.40;1.00;;;;;;5057319;28;20468;-84
2023/06/22 14:15:30;;;;;;;17.50;5.80;;;37.60;1.00;;;;;;5052788;28;20524;-85
2023/06/22 14:18:18;;;;;;;11.43;5.20;;;37.90;1.00;;;;;;5070898;28;20959;-85
2023/06/22 14:24:24;;;;;;;9.03;4.80;;;37.50;1.00;;;;;;5066516;28;20777;-84
2023/06/22 14:26:50;;;;;;;9.60;5.20;;;37.30;1.00;;;;;;5061084;28;20564;-84
2023/06/22 14:30:00;;;;;;;33.27;8.10;;;37.00;1.00;;;;;;5045524;28;20513;-85
2023/06/22 14:35:54;;;;;;;9.17;4.73;;;36.20;1.00;;;;;;5055451;28;20513;-85
2023/06/22 14:38:36;;;;;;;11.03;5.00;;;35.90;1.00;;;;;;5057741;28;21003;-87
2023/06/22 14:41:12;;;;;;;14.00;4.97;;;35.70;1.00;;;;;;5057533;28;20822;-85
2023/06/22 14:43:54;;;;;;;14.37;4.63;;;35.70;1.00;;;;;;5053910;28;20453;-86